Time,TemperatureF,DewpointF,PressureIn,WindDirection,WindDirectionDegrees,WindSpeedMPH,WindSpeedGustMPH,Humidity,HourlyPrecipIn,Conditions,Clouds,dailyrainin,SoftwareType,DateUTC
2013-08-08 00:01:00,68.4,40.3,25.13,West,263,6.0,9.6,36,0.00,,,-99.99,FreeWX 2.04,2013-08-08 06:01:00,
2013-08-08 00:06:00,68.0,40.8,25.13,WSW,244,7.0,12.1,37,0.00,,,-99.99,FreeWX 2.04,2013-08-08 06:06:00,
2013-08-08 00:11:00,67.6,41.2,25.13,SW,233,8.0,12.5,38,0.00,,,-99.99,FreeWX 2.04,2013-08-08 06:11:00,
2013-08-08 00:16:00,67.5,41.5,25.13,SW,219,8.0,11.0,39,0.00,,,-99.99,FreeWX 2.04,2013-08-08 06:16:00,
2013-08-08 00:21:00,67.1,42.6,25.13,SSW,210,8.0,11.6,41,0.00,,,-99.99,FreeWX 2.04,2013-08-08 06:21:00,
2013-08-08 00:26:00,66.9,43.7,25.13,SSW,204,8.0,11.2,43,0.00,,,-99.99,FreeWX 2.04,2013-08-08 06:26:00,
2013-08-08 00:31:00,66.6,43.9,25.13,SSW,199,7.0,11.2,44,0.00,,,-99.99,FreeWX 2.04,2013-08-08 06:31:00,
2013-08-08 00:36:00,66.2,44.2,25.13,South,188,6.0,10.1,45,0.00,,,-99.99,FreeWX 2.04,2013-08-08 06:36:00,
2013-08-08 00:41:00,66.0,44.6,25.13,South,180,6.0,7.4,46,0.00,,,-99.99,FreeWX 2.04,2013-08-08 06:41:00,
2013-08-08 00:46:00,65.7,45.0,25.13,South,174,4.0,6.9,47,0.00,,,-99.99,FreeWX 2.04,2013-08-08 06:46:00,
2013-08-08 00:51:00,65.7,45.0,25.13,South,173,4.0,6.3,47,0.00,,,-99.99,FreeWX 2.04,2013-08-08 06:51:00,
2013-08-08 00:56:00,65.5,45.3,25.13,South,179,4.0,7.4,48,0.00,,,-99.99,FreeWX 2.04,2013-08-08 06:56:00,
2013-08-08 01:01:00,65.5,45.3,25.13,South,185,4.0,4.5,48,0.00,,,-99.99,FreeWX 2.04,2013-08-08 07:01:00,
2013-08-08 01:06:00,65.5,45.3,25.13,South,185,3.0,5.4,48,0.00,,,-99.99,FreeWX 2.04,2013-08-08 07:06:00,
2013-08-08 01:11:00,65.3,45.1,25.13,South,172,2.0,3.6,48,0.00,,,-99.99,FreeWX 2.04,2013-08-08 07:11:00,
2013-08-08 01:16:00,65.3,45.7,25.13,SSE,167,1.0,4.0,49,0.00,,,-99.99,FreeWX 2.04,2013-08-08 07:16:00,
2013-08-08 01:21:00,65.3,45.7,25.13,SSE,167,1.0,3.6,49,0.00,,,-99.99,FreeWX 2.04,2013-08-08 07:21:00,
2013-08-08 01:26:00,65.3,45.7,25.13,SSE,167,1.0,4.0,49,0.00,,,-99.99,FreeWX 2.04,2013-08-08 07:26:00,
2013-08-08 01:31:00,65.3,45.7,25.10,SSE,166,2.0,4.5,49,0.00,,,-99.99,FreeWX 2.04,2013-08-08 07:31:00,
2013-08-08 01:36:00,65.1,45.0,25.10,SSE,161,2.0,3.6,48,0.00,,,-99.99,FreeWX 2.04,2013-08-08 07:36:00,
2013-08-08 01:41:00,65.1,45.0,25.10,SSE,157,1.0,4.5,48,0.00,,,-99.99,FreeWX 2.04,2013-08-08 07:41:00,
2013-08-08 01:46:00,65.1,45.5,25.10,SSE,157,1.0,4.5,49,0.00,,,-99.99,FreeWX 2.04,2013-08-08 07:46:00,
2013-08-08 01:51:00,65.1,45.5,25.10,SSE,149,2.0,5.4,49,0.00,,,-99.99,FreeWX 2.04,2013-08-08 07:51:00,
2013-08-08 01:56:00,65.1,45.0,25.10,SE,137,2.0,2.7,48,0.00,,,-99.99,FreeWX 2.04,2013-08-08 07:56:00,
2013-08-08 02:01:00,65.1,45.0,25.10,North,-999,0.0,0.0,48,0.00,,,-99.99,FreeWX 2.04,2013-08-08 08:01:00,
2013-08-08 02:06:00,65.1,45.5,25.10,North,-999,0.0,0.0,49,0.00,,,-99.99,FreeWX 2.04,2013-08-08 08:06:00,
2013-08-08 02:11:00,65.1,45.5,25.10,SE,134,1.0,5.4,49,0.00,,,-99.99,FreeWX 2.04,2013-08-08 08:11:00,
2013-08-08 02:16:00,65.1,45.0,25.10,ESE,111,3.0,5.4,48,0.00,,,-99.99,FreeWX 2.04,2013-08-08 08:16:00,
2013-08-08 02:21:00,65.5,44.8,25.10,NE,35,3.0,6.3,47,0.00,,,-99.99,FreeWX 2.04,2013-08-08 08:21:00,
2013-08-08 02:26:00,65.5,44.8,25.10,NNE,21,3.0,5.4,47,0.00,,,-99.99,FreeWX 2.04,2013-08-08 08:26:00,
2013-08-08 02:31:00,65.5,44.8,25.10,NNE,23,3.0,4.9,47,0.00,,,-99.99,FreeWX 2.04,2013-08-08 08:31:00,
2013-08-08 02:36:00,65.3,45.1,25.10,NNE,23,2.0,4.5,48,0.00,,,-99.99,FreeWX 2.04,2013-08-08 08:36:00,
2013-08-08 02:41:00,65.1,45.0,25.10,NNE,23,2.0,4.0,48,0.00,,,-99.99,FreeWX 2.04,2013-08-08 08:41:00,
2013-08-08 02:46:00,65.1,45.0,25.10,NNE,23,2.0,4.0,48,0.00,,,-99.99,FreeWX 2.04,2013-08-08 08:46:00,
2013-08-08 02:51:00,65.8,44.4,25.10,NNE,23,2.0,5.4,46,0.00,,,-99.99,FreeWX 2.04,2013-08-08 08:51:00,
2013-08-08 02:56:00,66.0,44.1,25.10,NNE,27,2.0,4.5,45,0.00,,,-99.99,FreeWX 2.04,2013-08-08 08:56:00,
2013-08-08 03:01:00,66.4,43.2,25.10,NE,42,2.0,6.3,43,0.00,,,-99.99,FreeWX 2.04,2013-08-08 09:01:00,
2013-08-08 03:06:00,66.4,43.2,25.10,ENE,60,2.0,4.0,43,0.00,,,-99.99,FreeWX 2.04,2013-08-08 09:06:00,
2013-08-08 03:11:00,66.6,43.3,25.10,ENE,68,2.0,6.3,43,0.00,,,-99.99,FreeWX 2.04,2013-08-08 09:11:00,
2013-08-08 03:16:00,66.6,43.3,25.10,ENE,75,2.0,4.0,43,0.00,,,-99.99,FreeWX 2.04,2013-08-08 09:16:00,
2013-08-08 03:21:00,66.6,42.8,25.10,East,79,2.0,4.0,42,0.00,,,-99.99,FreeWX 2.04,2013-08-08 09:21:00,
2013-08-08 03:26:00,66.4,42.6,25.10,East,79,1.0,2.7,42,0.00,,,-99.99,FreeWX 2.04,2013-08-08 09:26:00,
2013-08-08 03:31:00,66.6,42.1,25.10,North,-999,0.0,2.7,41,0.00,,,-99.99,FreeWX 2.04,2013-08-08 09:31:00,
2013-08-08 03:36:00,66.7,41.7,25.10,North,-999,0.0,3.1,40,0.00,,,-99.99,FreeWX 2.04,2013-08-08 09:36:00,
2013-08-08 03:41:00,66.7,41.7,25.10,North,-999,0.0,3.6,40,0.00,,,-99.99,FreeWX 2.04,2013-08-08 09:41:00,
2013-08-08 03:46:00,66.9,41.2,25.10,East,79,1.0,4.0,39,0.00,,,-99.99,FreeWX 2.04,2013-08-08 09:46:00,
2013-08-08 03:51:00,66.7,41.0,25.10,East,79,2.0,4.0,39,0.00,,,-99.99,FreeWX 2.04,2013-08-08 09:51:00,
2013-08-08 03:56:00,66.7,41.0,25.10,East,79,2.0,3.6,39,0.00,,,-99.99,FreeWX 2.04,2013-08-08 09:56:00,
2013-08-08 04:01:00,66.7,41.0,25.10,East,79,2.0,4.0,39,0.00,,,-99.99,FreeWX 2.04,2013-08-08 10:01:00,
2013-08-08 04:06:00,66.7,41.0,25.10,East,79,2.0,4.5,39,0.00,,,-99.99,FreeWX 2.04,2013-08-08 10:06:00,
2013-08-08 04:11:00,66.7,41.0,25.10,East,79,3.0,4.9,39,0.00,,,-99.99,FreeWX 2.04,2013-08-08 10:11:00,
2013-08-08 04:16:00,67.1,40.6,25.10,East,80,4.0,6.7,38,0.00,,,-99.99,FreeWX 2.04,2013-08-08 10:16:00,
2013-08-08 04:21:00,67.5,40.3,25.10,East,83,4.0,6.7,37,0.00,,,-99.99,FreeWX 2.04,2013-08-08 10:21:00,
2013-08-08 04:26:00,67.6,39.7,25.10,East,83,4.0,4.9,36,0.00,,,-99.99,FreeWX 2.04,2013-08-08 10:26:00,
2013-08-08 04:31:00,67.6,39.7,25.10,East,81,3.0,4.9,36,0.00,,,-99.99,FreeWX 2.04,2013-08-08 10:31:00,
2013-08-08 04:36:00,67.5,39.6,25.10,East,97,3.0,4.9,36,0.00,,,-99.99,FreeWX 2.04,2013-08-08 10:36:00,
2013-08-08 04:41:00,67.8,39.9,25.10,ESE,119,4.0,9.2,36,0.00,,,-99.99,FreeWX 2.04,2013-08-08 10:41:00,
2013-08-08 04:46:00,68.2,39.6,25.10,SE,124,5.0,8.3,35,0.00,,,-99.99,FreeWX 2.04,2013-08-08 10:46:00,
2013-08-08 04:51:00,68.2,40.3,25.10,SE,131,5.0,9.2,36,0.00,,,-99.99,FreeWX 2.04,2013-08-08 10:51:00,
2013-08-08 04:56:00,67.6,40.5,25.10,SSE,167,6.0,11.0,37,0.00,,,-99.99,FreeWX 2.04,2013-08-08 10:56:00,
2013-08-08 05:01:00,67.5,41.0,25.10,SSW,201,8.0,13.0,38,0.00,,,-99.99,FreeWX 2.04,2013-08-08 11:01:00,
2013-08-08 05:06:00,65.1,45.5,25.10,SSW,201,10.0,15.9,49,0.00,,,-99.99,FreeWX 2.04,2013-08-08 11:06:00,
2013-08-08 05:11:00,64.2,47.3,25.10,SSW,196,11.0,15.2,54,0.00,,,-99.99,FreeWX 2.04,2013-08-08 11:11:00,
2013-08-08 05:16:00,63.5,48.0,25.10,SW,215,10.0,14.3,57,0.00,,,-99.99,FreeWX 2.04,2013-08-08 11:16:00,
2013-08-08 05:21:00,63.5,47.5,25.10,WSW,242,8.0,11.0,56,0.00,,,-99.99,FreeWX 2.04,2013-08-08 11:21:00,
2013-08-08 05:26:00,63.3,47.8,25.10,West,277,6.0,8.3,57,0.00,,,-99.99,FreeWX 2.04,2013-08-08 11:26:00,
2013-08-08 05:31:00,63.3,47.8,25.10,NNW,332,3.0,6.7,57,0.00,,,-99.99,FreeWX 2.04,2013-08-08 11:31:00,
2013-08-08 05:36:00,63.3,47.8,25.10,North,7,2.0,4.5,57,0.00,,,-99.99,FreeWX 2.04,2013-08-08 11:36:00,
2013-08-08 05:41:00,63.0,48.0,25.10,NNE,22,3.0,7.4,58,0.00,,,-99.99,FreeWX 2.04,2013-08-08 11:41:00,
2013-08-08 05:46:00,63.0,48.0,25.13,NE,36,3.0,4.9,58,0.00,,,-99.99,FreeWX 2.04,2013-08-08 11:46:00,
2013-08-08 05:51:00,63.0,48.0,25.13,NE,42,2.0,4.5,58,0.00,,,-99.99,FreeWX 2.04,2013-08-08 11:51:00,
2013-08-08 05:56:00,62.6,48.0,25.13,NE,47,2.0,4.9,59,0.00,,,-99.99,FreeWX 2.04,2013-08-08 11:56:00,
2013-08-08 06:01:00,62.4,47.5,25.13,North,-999,0.0,0.0,58,0.00,,,-99.99,FreeWX 2.04,2013-08-08 12:01:00,
2013-08-08 06:06:00,62.8,48.2,25.13,North,-999,0.0,0.0,59,0.00,,,-99.99,FreeWX 2.04,2013-08-08 12:06:00,
2013-08-08 06:11:00,63.0,48.0,25.13,North,-999,0.0,0.0,58,0.00,,,-99.99,FreeWX 2.04,2013-08-08 12:11:00,
2013-08-08 06:16:00,63.0,48.0,25.13,North,-999,0.0,3.6,58,0.00,,,-99.99,FreeWX 2.04,2013-08-08 12:16:00,
2013-08-08 06:21:00,63.1,47.7,25.13,North,-999,0.0,2.7,57,0.00,,,-99.99,FreeWX 2.04,2013-08-08 12:21:00,
2013-08-08 06:26:00,63.1,47.1,25.13,North,-999,0.0,0.0,56,0.00,,,-99.99,FreeWX 2.04,2013-08-08 12:26:00,
2013-08-08 06:31:00,62.8,47.3,25.13,North,-999,0.0,0.0,57,0.00,,,-99.99,FreeWX 2.04,2013-08-08 12:31:00,
2013-08-08 06:36:00,62.4,47.8,25.13,North,-999,0.0,4.0,59,0.00,,,-99.99,FreeWX 2.04,2013-08-08 12:36:00,
2013-08-08 06:41:00,62.2,47.7,25.13,North,-999,0.0,3.6,59,0.00,,,-99.99,FreeWX 2.04,2013-08-08 12:41:00,
2013-08-08 06:46:00,62.2,48.2,25.13,North,-999,0.0,0.0,60,0.00,,,-99.99,FreeWX 2.04,2013-08-08 12:46:00,
2013-08-08 06:51:00,62.4,47.8,25.13,North,-999,0.0,0.0,59,0.00,,,-99.99,FreeWX 2.04,2013-08-08 12:51:00,
2013-08-08 06:56:00,62.2,48.2,25.13,North,-999,0.0,0.0,60,0.00,,,-99.99,FreeWX 2.04,2013-08-08 12:56:00,
2013-08-08 07:01:00,62.6,48.0,25.13,North,-999,0.0,0.0,59,0.00,,,-99.99,FreeWX 2.04,2013-08-08 13:01:00,
2013-08-08 07:06:00,62.6,47.7,25.13,North,-999,0.0,0.0,58,0.00,,,-99.99,FreeWX 2.04,2013-08-08 13:06:00,
2013-08-08 07:11:00,62.8,48.2,25.13,North,-999,0.0,0.0,59,0.00,,,-99.99,FreeWX 2.04,2013-08-08 13:11:00,
2013-08-08 07:16:00,63.1,48.6,25.13,North,-999,0.0,4.5,59,0.00,,,-99.99,FreeWX 2.04,2013-08-08 13:16:00,
2013-08-08 07:21:00,63.7,47.7,25.13,East,87,2.0,4.9,56,0.00,,,-99.99,FreeWX 2.04,2013-08-08 13:21:00,
2013-08-08 07:26:00,64.0,47.5,25.13,East,82,2.0,4.5,55,0.00,,,-99.99,FreeWX 2.04,2013-08-08 13:26:00,
2013-08-08 07:31:00,64.4,47.3,25.13,North,-999,0.0,3.6,54,0.00,,,-99.99,FreeWX 2.04,2013-08-08 13:31:00,
2013-08-08 07:36:00,64.9,46.9,25.13,North,-999,0.0,3.6,52,0.00,,,-99.99,FreeWX 2.04,2013-08-08 13:36:00,
2013-08-08 07:41:00,65.7,45.5,25.13,ENE,78,2.0,5.4,48,0.00,,,-99.99,FreeWX 2.04,2013-08-08 13:41:00,
2013-08-08 07:46:00,66.2,44.8,25.13,East,79,4.0,6.3,46,0.00,,,-99.99,FreeWX 2.04,2013-08-08 13:46:00,
2013-08-08 07:52:00,66.6,44.6,25.13,East,83,4.0,5.4,45,0.00,,,-99.99,FreeWX 2.04,2013-08-08 13:52:00,
2013-08-08 07:57:00,66.9,44.2,25.13,East,83,4.0,4.9,44,0.00,,,-99.99,FreeWX 2.04,2013-08-08 13:57:00,
2013-08-08 08:02:00,67.3,44.1,25.13,East,81,4.0,5.4,43,0.00,,,-99.99,FreeWX 2.04,2013-08-08 14:02:00,
2013-08-08 08:07:00,67.6,43.7,25.13,East,79,4.0,5.8,42,0.00,,,-99.99,FreeWX 2.04,2013-08-08 14:07:00,
2013-08-08 08:12:00,67.8,43.3,25.13,East,80,4.0,6.7,41,0.00,,,-99.99,FreeWX 2.04,2013-08-08 14:12:00,
2013-08-08 08:17:00,68.0,43.3,25.13,East,81,4.0,6.3,41,0.00,,,-99.99,FreeWX 2.04,2013-08-08 14:17:00,
2013-08-08 08:22:00,68.2,43.0,25.13,East,82,3.0,4.9,40,0.00,,,-99.99,FreeWX 2.04,2013-08-08 14:22:00,
2013-08-08 08:27:00,68.4,43.2,25.13,East,82,3.0,4.9,40,0.00,,,-99.99,FreeWX 2.04,2013-08-08 14:27:00,
2013-08-08 08:32:00,68.4,41.7,25.13,ESE,102,3.0,5.8,38,0.00,,,-99.99,FreeWX 2.04,2013-08-08 14:32:00,
2013-08-08 08:37:00,68.5,42.6,25.13,SE,125,4.0,4.9,39,0.00,,,-99.99,FreeWX 2.04,2013-08-08 14:37:00,
2013-08-08 08:42:00,68.7,41.4,25.13,SE,127,3.0,5.4,37,0.00,,,-99.99,FreeWX 2.04,2013-08-08 14:42:00,
2013-08-08 08:47:00,68.9,41.5,25.13,SE,127,3.0,4.5,37,0.00,,,-99.99,FreeWX 2.04,2013-08-08 14:47:00,
2013-08-08 08:52:00,68.9,40.1,25.13,SE,127,2.0,3.6,35,0.00,,,-99.99,FreeWX 2.04,2013-08-08 14:52:00,
2013-08-08 08:57:00,69.3,40.5,25.13,SE,127,2.0,3.6,35,0.00,,,-99.99,FreeWX 2.04,2013-08-08 14:57:00,
2013-08-08 09:02:00,69.3,39.7,25.13,SE,128,2.0,3.6,34,0.00,,,-99.99,FreeWX 2.04,2013-08-08 15:02:00,
2013-08-08 09:07:00,69.4,39.9,25.13,SE,128,2.0,4.0,34,0.00,,,-99.99,FreeWX 2.04,2013-08-08 15:07:00,
2013-08-08 09:13:00,69.4,39.9,25.13,SE,127,2.0,3.6,34,0.00,,,-99.99,FreeWX 2.04,2013-08-08 15:13:00,
2013-08-08 09:18:00,69.6,39.2,25.13,SE,127,1.0,2.7,33,0.00,,,-99.99,FreeWX 2.04,2013-08-08 15:18:00,
2013-08-08 09:23:00,69.6,39.2,25.13,SE,127,1.0,4.5,33,0.00,,,-99.99,FreeWX 2.04,2013-08-08 15:23:00,
2013-08-08 09:28:00,69.6,39.9,25.13,SE,128,2.0,4.5,34,0.00,,,-99.99,FreeWX 2.04,2013-08-08 15:28:00,
2013-08-08 09:33:00,69.6,39.2,25.13,SE,128,3.0,4.9,33,0.00,,,-99.99,FreeWX 2.04,2013-08-08 15:33:00,
2013-08-08 09:38:00,69.6,39.9,25.13,SE,129,3.0,4.5,34,0.00,,,-99.99,FreeWX 2.04,2013-08-08 15:38:00,
2013-08-08 09:43:00,69.6,39.9,25.13,SE,129,3.0,4.9,34,0.00,,,-99.99,FreeWX 2.04,2013-08-08 15:43:00,
2013-08-08 09:48:00,69.6,39.9,25.13,SE,142,4.0,6.3,34,0.00,,,-99.99,FreeWX 2.04,2013-08-08 15:48:00,
2013-08-08 09:53:00,69.8,39.4,25.13,South,180,5.0,6.7,33,0.00,,,-99.99,FreeWX 2.04,2013-08-08 15:53:00,
2013-08-08 09:58:00,69.8,40.1,25.13,SW,216,5.0,8.3,34,0.00,,,-99.99,FreeWX 2.04,2013-08-08 15:58:00,
2013-08-08 10:03:00,69.8,40.8,25.13,SW,235,5.0,6.9,35,0.00,,,-99.99,FreeWX 2.04,2013-08-08 16:03:00,
2013-08-08 10:08:00,70.0,40.3,25.13,SW,235,4.0,5.4,34,0.00,,,-99.99,FreeWX 2.04,2013-08-08 16:08:00,
2013-08-08 10:13:00,70.0,40.3,25.13,SW,231,4.0,6.7,34,0.00,,,-99.99,FreeWX 2.04,2013-08-08 16:13:00,
2013-08-08 10:18:00,69.8,42.3,25.13,SW,234,5.0,7.4,37,0.00,,,-99.99,FreeWX 2.04,2013-08-08 16:18:00,
2013-08-08 10:23:00,69.1,46.2,25.13,West,260,5.0,7.8,44,0.00,,,-99.99,FreeWX 2.04,2013-08-08 16:23:00,
2013-08-08 10:28:00,68.7,47.1,25.13,NW,317,4.0,6.7,46,0.00,,,-99.99,FreeWX 2.04,2013-08-08 16:28:00,
2013-08-08 10:33:00,68.4,47.8,25.13,North,5,4.0,8.7,48,0.00,,,-99.99,FreeWX 2.04,2013-08-08 16:33:00,
2013-08-08 10:38:00,68.4,47.8,25.13,North,5,5.0,10.1,48,0.00,,,-99.99,FreeWX 2.04,2013-08-08 16:38:00,
2013-08-08 10:43:00,68.9,47.3,25.13,North,353,5.0,6.3,46,0.00,,,-99.99,FreeWX 2.04,2013-08-08 16:43:00,
2013-08-08 10:48:00,69.3,46.4,25.13,North,6,4.0,6.7,44,0.00,,,-99.99,FreeWX 2.04,2013-08-08 16:48:00,
2013-08-08 10:53:00,70.0,46.4,25.13,NNE,32,3.0,6.3,43,0.00,,,-99.99,FreeWX 2.04,2013-08-08 16:53:00,
2013-08-08 10:58:00,70.0,44.6,25.13,NNE,33,3.0,6.7,40,0.00,,,-99.99,FreeWX 2.04,2013-08-08 16:58:00,
2013-08-08 11:03:00,70.5,44.4,25.13,NNE,30,2.0,3.1,39,0.00,,,-99.99,FreeWX 2.04,2013-08-08 17:03:00,
2013-08-08 11:08:00,71.2,43.7,25.13,NNE,28,1.0,6.9,37,0.00,,,-99.99,FreeWX 2.04,2013-08-08 17:08:00,
2013-08-08 11:13:00,71.1,43.5,25.13,West,272,3.0,6.7,37,0.00,,,-99.99,FreeWX 2.04,2013-08-08 17:13:00,
2013-08-08 11:18:00,71.4,44.4,25.13,South,188,5.0,7.8,38,0.00,,,-99.99,FreeWX 2.04,2013-08-08 17:18:00,
2013-08-08 11:23:00,71.4,43.7,25.13,SE,146,5.0,6.9,37,0.00,,,-99.99,FreeWX 2.04,2013-08-08 17:23:00,
2013-08-08 11:28:00,71.8,44.8,25.13,SSE,148,4.0,6.9,38,0.00,,,-99.99,FreeWX 2.04,2013-08-08 17:28:00,
2013-08-08 11:33:00,72.0,43.5,25.13,South,180,5.0,7.4,36,0.00,,,-99.99,FreeWX 2.04,2013-08-08 17:33:00,
2013-08-08 11:38:00,72.1,43.0,25.13,SSW,196,5.0,8.7,35,0.00,,,-99.99,FreeWX 2.04,2013-08-08 17:38:00,
2013-08-08 11:43:00,73.4,42.6,25.13,SSW,194,4.0,5.4,33,0.00,,,-99.99,FreeWX 2.04,2013-08-08 17:43:00,
2013-08-08 11:48:00,73.9,42.3,25.13,SSW,194,3.0,7.8,32,0.00,,,-99.99,FreeWX 2.04,2013-08-08 17:48:00,
2013-08-08 11:53:00,73.8,42.1,25.13,SSW,197,4.0,8.3,32,0.00,,,-99.99,FreeWX 2.04,2013-08-08 17:53:00,
2013-08-08 11:58:00,73.6,41.0,25.13,SW,216,6.0,11.0,31,0.00,,,-99.99,FreeWX 2.04,2013-08-08 17:58:00,
2013-08-08 12:03:00,74.1,40.6,25.13,WSW,239,6.0,10.1,30,0.00,,,-99.99,FreeWX 2.04,2013-08-08 18:03:00,
2013-08-08 12:08:00,75.9,43.2,25.13,SW,227,6.0,10.5,31,0.00,,,-99.99,FreeWX 2.04,2013-08-08 18:08:00,
2013-08-08 12:13:00,75.9,40.5,25.13,SSW,195,7.0,11.0,28,0.00,,,-99.99,FreeWX 2.04,2013-08-08 18:13:00,
2013-08-08 12:18:00,75.0,33.6,25.13,SSW,192,8.0,12.1,22,0.00,,,-99.99,FreeWX 2.04,2013-08-08 18:18:00,
2013-08-08 12:23:00,75.7,37.4,25.13,SSW,200,8.0,13.0,25,0.00,,,-99.99,FreeWX 2.04,2013-08-08 18:23:00,
2013-08-08 12:28:00,75.0,42.3,25.13,South,191,8.0,12.5,31,0.00,,,-99.99,FreeWX 2.04,2013-08-08 18:28:00,
2013-08-08 12:33:00,73.9,41.4,25.13,SSW,192,8.0,11.0,31,0.00,,,-99.99,FreeWX 2.04,2013-08-08 18:33:00,
2013-08-08 12:38:00,75.0,42.3,25.13,SSW,204,6.0,9.6,31,0.00,,,-99.99,FreeWX 2.04,2013-08-08 18:38:00,
2013-08-08 12:43:00,75.4,39.0,25.13,SSW,210,6.0,11.2,27,0.00,,,-99.99,FreeWX 2.04,2013-08-08 18:43:00,
2013-08-08 12:48:00,75.0,41.5,25.13,SW,229,7.0,10.5,30,0.00,,,-99.99,FreeWX 2.04,2013-08-08 18:48:00,
2013-08-08 12:53:00,75.2,40.8,25.13,SW,217,7.0,11.0,29,0.00,,,-99.99,FreeWX 2.04,2013-08-08 18:53:00,
2013-08-08 12:58:00,75.6,39.2,25.13,South,186,6.0,11.0,27,0.00,,,-99.99,FreeWX 2.04,2013-08-08 18:58:00,
2013-08-08 13:03:00,76.3,36.9,25.10,South,181,6.0,11.2,24,0.00,,,-99.99,FreeWX 2.04,2013-08-08 19:03:00,
2013-08-08 13:08:00,76.1,37.8,25.10,South,172,6.0,9.6,25,0.00,,,-99.99,FreeWX 2.04,2013-08-08 19:08:00,
2013-08-08 13:13:00,76.1,36.7,25.10,South,173,6.0,9.2,24,0.00,,,-99.99,FreeWX 2.04,2013-08-08 19:13:00,
2013-08-08 13:18:00,77.0,36.3,25.10,South,176,6.0,12.5,23,0.00,,,-99.99,FreeWX 2.04,2013-08-08 19:18:00,
2013-08-08 13:23:00,77.4,36.7,25.10,SSE,150,6.0,7.4,23,0.00,,,-99.99,FreeWX 2.04,2013-08-08 19:23:00,
2013-08-08 13:28:00,77.4,36.7,25.10,SSE,153,5.0,9.6,23,0.00,,,-99.99,FreeWX 2.04,2013-08-08 19:28:00,
2013-08-08 13:33:00,77.2,36.5,25.10,South,169,6.0,8.7,23,0.00,,,-99.99,FreeWX 2.04,2013-08-08 19:33:00,
2013-08-08 13:38:00,77.7,34.7,25.10,South,171,5.0,9.2,21,0.00,,,-99.99,FreeWX 2.04,2013-08-08 19:38:00,
2013-08-08 13:43:00,78.6,34.2,25.10,SSE,164,5.0,6.9,20,0.00,,,-99.99,FreeWX 2.04,2013-08-08 19:43:00,
2013-08-08 13:48:00,79.5,34.9,25.10,SSW,194,5.0,9.2,20,0.00,,,-99.99,FreeWX 2.04,2013-08-08 19:48:00,
2013-08-08 13:53:00,80.6,31.8,25.10,SW,216,6.0,9.2,17,0.00,,,-99.99,FreeWX 2.04,2013-08-08 19:53:00,
2013-08-08 13:58:00,80.4,31.6,25.10,SSW,198,6.0,11.0,17,0.00,,,-99.99,FreeWX 2.04,2013-08-08 19:58:00,
2013-08-08 14:03:00,79.9,35.2,25.07,SSE,165,6.0,9.6,20,0.00,,,-99.99,FreeWX 2.04,2013-08-08 20:03:00,
2013-08-08 14:08:00,80.4,31.6,25.07,SE,134,6.0,11.0,17,0.00,,,-99.99,FreeWX 2.04,2013-08-08 20:08:00,
2013-08-08 14:13:00,80.6,31.8,25.07,SSE,156,6.0,9.2,17,0.00,,,-99.99,FreeWX 2.04,2013-08-08 20:13:00,
2013-08-08 14:18:00,80.6,31.8,25.07,SSE,155,5.0,9.2,17,0.00,,,-99.99,FreeWX 2.04,2013-08-08 20:18:00,
2013-08-08 14:23:00,81.5,27.7,25.07,SSE,157,6.0,12.5,14,0.00,,,-99.99,FreeWX 2.04,2013-08-08 20:23:00,
2013-08-08 14:28:00,80.6,27.0,25.07,SW,218,7.0,13.0,14,0.00,,,-99.99,FreeWX 2.04,2013-08-08 20:28:00,
2013-08-08 14:33:00,80.8,34.7,25.07,WSW,257,6.0,8.3,19,0.00,,,-99.99,FreeWX 2.04,2013-08-08 20:33:00,
2013-08-08 14:38:00,81.1,32.2,25.07,SW,228,5.0,8.7,17,0.00,,,-99.99,FreeWX 2.04,2013-08-08 20:38:00,
2013-08-08 14:43:00,82.4,31.6,25.07,South,191,6.0,13.9,16,0.00,,,-99.99,FreeWX 2.04,2013-08-08 20:43:00,
2013-08-08 14:48:00,82.4,31.6,25.07,SSW,197,7.0,14.8,16,0.00,,,-99.99,FreeWX 2.04,2013-08-08 20:48:00,
2013-08-08 14:53:00,82.6,28.6,25.07,SSW,193,7.0,12.1,14,0.00,,,-99.99,FreeWX 2.04,2013-08-08 20:53:00,
2013-08-08 14:58:00,83.3,29.1,25.07,SSW,199,6.0,11.2,14,0.00,,,-99.99,FreeWX 2.04,2013-08-08 20:58:00,
2013-08-08 15:03:00,83.1,28.9,25.07,SSW,201,7.0,14.3,14,0.00,,,-99.99,FreeWX 2.04,2013-08-08 21:03:00,
2013-08-08 15:08:00,83.7,27.7,25.07,SSW,195,8.0,13.0,13,0.00,,,-99.99,FreeWX 2.04,2013-08-08 21:08:00,
2013-08-08 15:19:00,82.9,23.0,25.07,WSW,240,10.0,15.2,11,0.00,,,-99.99,FreeWX 2.04,2013-08-08 21:19:00,
2013-08-08 15:29:00,82.4,-99.9,25.07,SSW,199,10.0,15.4,-999,0.00,,,-99.99,FreeWX 2.04,2013-08-08 21:29:00,
2013-08-08 15:35:00,82.4,-99.9,25.04,SW,217,9.0,12.5,-999,0.00,,,-99.99,FreeWX 2.04,2013-08-08 21:35:00,
2013-08-08 15:40:00,82.6,-99.9,25.04,SW,229,9.0,14.3,-999,0.00,,,-99.99,FreeWX 2.04,2013-08-08 21:40:00,
2013-08-08 15:45:00,82.6,-99.9,25.04,SW,234,10.0,14.8,-999,0.00,,,-99.99,FreeWX 2.04,2013-08-08 21:45:00,
2013-08-08 15:50:00,82.6,-99.9,25.04,WSW,241,9.0,12.5,-999,0.00,,,-99.99,FreeWX 2.04,2013-08-08 21:50:00,
2013-08-08 15:55:00,83.7,-99.9,25.04,SW,221,9.0,16.8,-999,0.00,,,-99.99,FreeWX 2.04,2013-08-08 21:55:00,
2013-08-08 16:05:00,86.2,-99.9,25.04,SSW,205,12.0,18.1,-999,0.00,,,-99.99,FreeWX 2.04,2013-08-08 22:05:00,
2013-08-08 16:10:00,86.0,-99.9,25.04,SSW,201,12.0,15.2,-999,0.00,,,-99.99,FreeWX 2.04,2013-08-08 22:10:00,
2013-08-08 16:15:00,85.5,-99.9,25.04,SSW,198,10.0,13.9,-999,0.00,,,-99.99,FreeWX 2.04,2013-08-08 22:15:00,
2013-08-08 16:20:00,86.5,-99.9,25.04,SSW,193,10.0,15.9,-999,0.00,,,-99.99,FreeWX 2.04,2013-08-08 22:20:00,
2013-08-08 16:25:00,86.4,-99.9,25.04,South,185,11.0,13.4,-999,0.00,,,-99.99,FreeWX 2.04,2013-08-08 22:25:00,
2013-08-08 16:30:00,86.0,-99.9,25.04,SSW,193,11.0,17.7,-999,0.00,,,-99.99,FreeWX 2.04,2013-08-08 22:30:00,
2013-08-08 16:40:00,87.6,-99.9,25.04,SSW,195,10.0,18.1,-999,0.00,,,-99.99,FreeWX 2.04,2013-08-08 22:40:00,
2013-08-08 16:45:00,86.5,-99.9,25.04,South,191,12.0,19.0,-999,0.00,,,-99.99,FreeWX 2.04,2013-08-08 22:45:00,
2013-08-08 16:50:00,85.8,-99.9,25.04,SSW,196,12.0,15.4,-999,0.00,,,-99.99,FreeWX 2.04,2013-08-08 22:50:00,
2013-08-08 17:01:00,87.1,-99.9,25.04,SSW,192,10.0,15.2,-999,0.00,,,-99.99,FreeWX 2.04,2013-08-08 23:01:00,
2013-08-08 17:11:00,86.9,-99.9,25.04,South,189,10.0,15.2,-999,0.00,,,-99.99,FreeWX 2.04,2013-08-08 23:11:00,
2013-08-08 17:21:00,87.3,-99.9,25.04,SSW,197,10.0,16.8,-999,0.00,,,-99.99,FreeWX 2.04,2013-08-08 23:21:00,
2013-08-08 17:26:00,86.4,-99.9,25.04,South,185,11.0,15.2,-999,0.00,,,-99.99,FreeWX 2.04,2013-08-08 23:26:00,
2013-08-08 17:37:00,85.1,-99.9,25.04,South,175,7.0,11.0,-999,0.00,,,-99.99,FreeWX 2.04,2013-08-08 23:37:00,
2013-08-08 17:42:00,82.2,-99.9,25.04,East,93,8.0,14.8,-999,0.00,,,-99.99,FreeWX 2.04,2013-08-08 23:42:00,
2013-08-08 17:47:00,81.5,-99.9,25.07,NE,45,10.0,15.4,-999,0.00,,,-99.99,FreeWX 2.04,2013-08-08 23:47:00,
2013-08-08 17:52:00,80.8,-99.9,25.07,NE,43,10.0,19.9,-999,0.00,,,-99.99,FreeWX 2.04,2013-08-08 23:52:00,
2013-08-08 17:57:00,80.4,-99.9,25.07,NE,36,12.0,22.8,-999,0.00,,,-99.99,FreeWX 2.04,2013-08-08 23:57:00,
2013-08-08 18:02:00,80.6,-99.9,25.07,NE,38,11.0,14.8,-999,0.00,,,-99.99,FreeWX 2.04,2013-08-09 00:02:00,
2013-08-08 18:07:00,80.8,-99.9,25.07,NE,46,9.0,13.0,-999,0.00,,,-99.99,FreeWX 2.04,2013-08-09 00:07:00,
2013-08-08 18:17:00,80.6,-99.9,25.07,NE,41,10.0,15.9,-999,0.00,,,-99.99,FreeWX 2.04,2013-08-09 00:17:00,
2013-08-08 18:22:00,80.4,-99.9,25.07,NE,43,9.0,15.4,-999,0.00,,,-99.99,FreeWX 2.04,2013-08-09 00:22:00,
2013-08-08 18:27:00,80.4,-99.9,25.07,NE,42,8.0,11.6,-999,0.00,,,-99.99,FreeWX 2.04,2013-08-09 00:27:00,
2013-08-08 18:32:00,80.4,-99.9,25.07,NE,41,8.0,13.9,-999,0.00,,,-99.99,FreeWX 2.04,2013-08-09 00:32:00,
2013-08-08 18:37:00,80.2,-99.9,25.07,NE,38,8.0,15.2,-999,0.00,,,-99.99,FreeWX 2.04,2013-08-09 00:37:00,
2013-08-08 18:42:00,79.9,-99.9,25.07,NE,35,8.0,13.4,-999,0.00,,,-99.99,FreeWX 2.04,2013-08-09 00:42:00,
2013-08-08 18:47:00,79.9,-99.9,25.07,NNE,33,8.0,14.8,-999,0.00,,,-99.99,FreeWX 2.04,2013-08-09 00:47:00,
2013-08-08 18:58:00,79.2,-99.9,25.07,NE,37,8.0,15.2,-999,0.00,,,-99.99,FreeWX 2.04,2013-08-09 00:58:00,
2013-08-08 19:03:00,78.8,-99.9,25.07,NE,41,8.0,13.4,-999,0.00,,,-99.99,FreeWX 2.04,2013-08-09 01:03:00,
2013-08-08 19:08:00,78.6,-99.9,25.07,NE,50,8.0,15.9,-999,0.00,,,-99.99,FreeWX 2.04,2013-08-09 01:08:00,
2013-08-08 19:13:00,78.4,-99.9,25.07,NE,54,8.0,15.2,-999,0.00,,,-99.99,FreeWX 2.04,2013-08-09 01:13:00,
2013-08-08 19:18:00,78.4,-99.9,25.07,NE,55,9.0,15.2,-999,0.00,,,-99.99,FreeWX 2.04,2013-08-09 01:18:00,
2013-08-08 19:23:00,78.1,-99.9,25.07,NE,55,9.0,17.2,-999,0.00,,,-99.99,FreeWX 2.04,2013-08-09 01:23:00,
2013-08-08 19:28:00,77.9,-99.9,25.07,NE,49,7.0,9.6,-999,0.00,,,-99.99,FreeWX 2.04,2013-08-09 01:28:00,
2013-08-08 19:38:00,76.3,21.7,25.10,NNW,347,8.0,13.4,13,0.00,,,-99.99,FreeWX 2.04,2013-08-09 01:38:00,
2013-08-08 19:43:00,75.9,21.6,25.10,NNW,327,8.0,13.4,13,0.00,,,-99.99,FreeWX 2.04,2013-08-09 01:43:00,
2013-08-08 19:48:00,76.1,21.7,25.10,NNW,332,8.0,14.3,13,0.00,,,-99.99,FreeWX 2.04,2013-08-09 01:48:00,
2013-08-08 19:53:00,74.8,31.1,25.10,NNW,339,9.0,15.9,20,0.00,,,-99.99,FreeWX 2.04,2013-08-09 01:53:00,
2013-08-08 20:03:00,73.8,34.7,25.10,NNW,331,9.0,15.4,24,0.00,,,-99.99,FreeWX 2.04,2013-08-09 02:03:00,
2013-08-08 20:08:00,73.8,35.8,25.10,NNW,331,10.0,14.3,25,0.00,,,-99.99,FreeWX 2.04,2013-08-09 02:08:00,
2013-08-08 20:13:00,73.4,38.3,25.10,NW,315,8.0,12.5,28,0.00,,,-99.99,FreeWX 2.04,2013-08-09 02:13:00,
2013-08-08 20:18:00,72.0,41.4,25.10,West,278,8.0,16.3,33,0.00,,,-99.99,FreeWX 2.04,2013-08-09 02:18:00,
2013-08-08 20:23:00,71.6,41.0,25.10,West,264,8.0,13.4,33,0.00,,,-99.99,FreeWX 2.04,2013-08-09 02:23:00,
2013-08-08 20:28:00,71.4,41.5,25.10,WSW,251,7.0,10.5,34,0.00,,,-99.99,FreeWX 2.04,2013-08-09 02:28:00,
2013-08-08 20:33:00,71.4,42.3,25.13,SSE,161,5.0,7.8,35,0.00,,,-99.99,FreeWX 2.04,2013-08-09 02:33:00,
2013-08-08 20:38:00,71.4,40.8,25.13,SE,130,3.0,7.8,33,0.00,,,-99.99,FreeWX 2.04,2013-08-09 02:38:00,
2013-08-08 20:44:00,71.2,42.1,25.13,NNW,346,3.0,6.9,35,0.00,,,-99.99,FreeWX 2.04,2013-08-09 02:44:00,
2013-08-08 20:49:00,71.1,42.1,25.13,NW,320,4.0,6.7,35,0.00,,,-99.99,FreeWX 2.04,2013-08-09 02:49:00,
2013-08-08 20:59:00,71.4,40.8,25.13,WNW,301,5.0,8.3,33,0.00,,,-99.99,FreeWX 2.04,2013-08-09 02:59:00,
2013-08-08 21:04:00,71.1,40.5,25.13,North,6,5.0,10.5,33,0.00,,,-99.99,FreeWX 2.04,2013-08-09 03:04:00,
2013-08-08 21:09:00,70.9,41.9,25.13,NNE,14,7.0,14.3,35,0.00,,,-99.99,FreeWX 2.04,2013-08-09 03:09:00,
2013-08-08 21:14:00,69.8,45.7,25.13,NNE,16,6.0,7.8,42,0.00,,,-99.99,FreeWX 2.04,2013-08-09 03:14:00,
2013-08-08 21:19:00,69.3,45.1,25.13,NNE,25,5.0,7.4,42,0.00,,,-99.99,FreeWX 2.04,2013-08-09 03:19:00,
2013-08-08 21:24:00,69.6,44.2,25.13,NNE,29,4.0,8.3,40,0.00,,,-99.99,FreeWX 2.04,2013-08-09 03:24:00,
2013-08-08 21:29:00,69.1,44.4,25.13,NNE,30,4.0,6.9,41,0.00,,,-99.99,FreeWX 2.04,2013-08-09 03:29:00,
2013-08-08 21:34:00,69.8,42.3,25.13,NNE,30,5.0,9.2,37,0.00,,,-99.99,FreeWX 2.04,2013-08-09 03:34:00,
2013-08-08 21:39:00,70.0,41.7,25.13,NNE,30,5.0,10.1,36,0.00,,,-99.99,FreeWX 2.04,2013-08-09 03:39:00,
2013-08-08 21:44:00,69.3,42.6,25.13,NNE,27,5.0,6.7,38,0.00,,,-99.99,FreeWX 2.04,2013-08-09 03:44:00,
2013-08-08 21:49:00,68.9,43.0,25.13,NNE,19,5.0,6.3,39,0.00,,,-99.99,FreeWX 2.04,2013-08-09 03:49:00,
2013-08-08 21:54:00,68.7,43.3,25.13,NNE,17,5.0,6.9,40,0.00,,,-99.99,FreeWX 2.04,2013-08-09 03:54:00,
2013-08-08 21:59:00,68.7,44.1,25.13,NNE,21,5.0,7.4,41,0.00,,,-99.99,FreeWX 2.04,2013-08-09 03:59:00,
2013-08-08 22:04:00,68.9,43.5,25.13,NNE,19,5.0,8.3,40,0.00,,,-99.99,FreeWX 2.04,2013-08-09 04:04:00,
2013-08-08 22:09:00,68.9,43.0,25.13,North,7,5.0,6.9,39,0.00,,,-99.99,FreeWX 2.04,2013-08-09 04:09:00,
2013-08-08 22:14:00,69.4,42.1,25.13,NNW,348,5.0,7.4,37,0.00,,,-99.99,FreeWX 2.04,2013-08-09 04:14:00,
2013-08-08 22:19:00,69.6,41.5,25.13,NNW,335,6.0,7.4,36,0.00,,,-99.99,FreeWX 2.04,2013-08-09 04:19:00,
2013-08-08 22:24:00,69.6,41.5,25.13,NNW,340,6.0,7.8,36,0.00,,,-99.99,FreeWX 2.04,2013-08-09 04:24:00,
2013-08-08 22:29:00,69.6,40.8,25.13,North,358,5.0,6.7,35,0.00,,,-99.99,FreeWX 2.04,2013-08-09 04:29:00,
2013-08-08 22:34:00,69.4,40.6,25.13,North,9,5.0,7.4,35,0.00,,,-99.99,FreeWX 2.04,2013-08-09 04:34:00,
2013-08-08 22:39:00,68.5,41.9,25.13,NNE,25,4.0,7.4,38,0.00,,,-99.99,FreeWX 2.04,2013-08-09 04:39:00,
2013-08-08 22:44:00,67.6,43.2,25.13,NNE,30,5.0,7.8,41,0.00,,,-99.99,FreeWX 2.04,2013-08-09 04:44:00,
2013-08-08 22:49:00,67.8,41.9,25.13,NNE,24,6.0,9.6,39,0.00,,,-99.99,FreeWX 2.04,2013-08-09 04:49:00,
2013-08-08 22:54:00,69.1,39.6,25.13,NNE,26,6.0,10.1,34,0.00,,,-99.99,FreeWX 2.04,2013-08-09 04:54:00,
2013-08-08 22:59:00,70.5,38.5,25.13,NNE,26,8.0,14.3,31,0.00,,,-99.99,FreeWX 2.04,2013-08-09 04:59:00,
2013-08-08 23:04:00,71.1,36.3,25.13,NNE,29,8.0,15.9,28,0.00,,,-99.99,FreeWX 2.04,2013-08-09 05:04:00,
2013-08-08 23:09:00,71.6,34.9,25.13,NNE,28,10.0,19.0,26,0.00,,,-99.99,FreeWX 2.04,2013-08-09 05:09:00,
2013-08-08 23:14:00,71.6,34.9,25.13,NNE,24,10.0,15.2,26,0.00,,,-99.99,FreeWX 2.04,2013-08-09 05:14:00,
2013-08-08 23:19:00,71.4,33.8,25.13,NNE,23,9.0,15.4,25,0.00,,,-99.99,FreeWX 2.04,2013-08-09 05:19:00,
2013-08-08 23:24:00,71.4,34.7,25.13,NNE,29,8.0,13.0,26,0.00,,,-99.99,FreeWX 2.04,2013-08-09 05:24:00,
2013-08-08 23:29:00,71.2,34.5,25.13,NNE,33,7.0,14.3,26,0.00,,,-99.99,FreeWX 2.04,2013-08-09 05:29:00,
2013-08-08 23:34:00,71.4,33.8,25.13,NE,34,7.0,13.0,25,0.00,,,-99.99,FreeWX 2.04,2013-08-09 05:34:00,
2013-08-08 23:39:00,71.4,34.7,25.13,NE,36,7.0,15.9,26,0.00,,,-99.99,FreeWX 2.04,2013-08-09 05:39:00,
2013-08-08 23:44:00,71.4,34.7,25.13,NE,35,7.0,11.0,26,0.00,,,-99.99,FreeWX 2.04,2013-08-09 05:44:00,
2013-08-08 23:49:00,70.9,35.2,25.13,NE,35,6.0,8.7,27,0.00,,,-99.99,FreeWX 2.04,2013-08-09 05:49:00,
2013-08-08 23:54:00,70.9,35.2,25.13,NNE,29,6.0,11.0,27,0.00,,,-99.99,FreeWX 2.04,2013-08-09 05:54:00,
2013-08-08 23:59:00,70.2,36.5,25.13,NNE,24,6.0,9.2,29,0.00,,,-99.99,FreeWX 2.04,2013-08-09 05:59:00,